Time;durP1;ratioP1;P1;durP2;ratioP2;P2;SDS_P1;SDS_P2;PMS_P1;PMS_P2;Temp;Humidity;BMP_temperature;BMP_pressure;BME280_temperature;BME280_humidity;BME280_pressure;Samples;Min_cycle;Max_cycle;Signal;HPM_P1;HPM_P2
2022/09/18 00:01:42;;;;;;;5.67;1.80;;;;;;;;;;5034615;28;20211;-81
2022/09/18 00:04:12;;;;;;;8.23;1.60;;;;;;;;;;5051079;28;20173;-81
2022/09/18 00:06:39;;;;;;;5.33;2.00;;;;;;;;;;5034849;28;20183;-81
2022/09/18 00:09:07;;;;;;;8.47;2.23;;;;;;;;;;5050962;28;20208;-81
2022/09/18 00:11:34;;;;;;;3.13;1.77;;;;;;;;;;5051091;28;20195;-81
2022/09/18 00:14:00;;;;;;;4.43;2.03;;;;;;;;;;5052325;28;20203;-81
2022/09/18 00:16:26;;;;;;;5.40;2.53;;;;;;;;;;5034361;28;20558;-81
2022/09/18 00:18:52;;;;;;;4.47;2.23;;;;;;;;;;5050864;28;20214;-81
2022/09/18 00:21:21;;;;;;;5.13;2.53;;;;;;;;;;5034198;28;20294;-81
2022/09/18 00:23:48;;;;;;;5.20;2.40;;;;;;;;;;5050857;28;20176;-81
2022/09/18 00:26:15;;;;;;;3.63;2.30;;;;;;;;;;5052366;28;20329;-81
2022/09/18 00:28:41;;;;;;;4.20;2.40;;;;;;;;;;5034115;28;20205;-81
2022/09/18 00:31:08;;;;;;;3.00;2.30;;;;;;;;;;5034424;28;20184;-81
2022/09/18 00:33:35;;;;;;;4.87;2.27;;;;;;;;;;5050853;28;20189;-81
2022/09/18 00:36:05;;;;;;;7.40;2.70;;;;;;;;;;5052274;28;20187;-81
2022/09/18 00:38:31;;;;;;;3.97;2.43;;;;;;;;;;5050703;28;20323;-81
2022/09/18 00:41:01;;;;;;;3.03;2.37;;;;;;;;;;5050434;28;20231;-81
2022/09/18 00:43:28;;;;;;;4.70;2.60;;;;;;;;;;5050924;28;20225;-81
2022/09/18 00:45:56;;;;;;;5.03;2.80;;;;;;;;;;5034250;28;20221;-81
2022/09/18 00:48:23;;;;;;;4.60;2.67;;;;;;;;;;5034051;28;20662;-81
2022/09/18 00:50:49;;;;;;;5.67;2.70;;;;;;;;;;5050475;28;20253;-81
2022/09/18 00:53:15;;;;;;;5.67;3.00;;;;;;;;;;5034081;28;20179;-81
2022/09/18 00:55:41;;;;;;;4.33;2.57;;;;;;;;;;5050710;28;20181;-81
2022/09/18 00:58:07;;;;;;;5.33;2.60;;;;;;;;;;5034010;28;20228;-81
2022/09/18 01:00:35;;;;;;;5.10;2.73;;;;;;;;;;5050197;28;20177;-81
2022/09/18 01:03:01;;;;;;;4.20;2.60;;;;;;;;;;5033707;28;20188;-81
2022/09/18 01:05:46;;;;;;;6.33;2.60;;;;;;;;;;5037135;28;20203;-81
2022/09/18 01:08:16;;;;;;;3.83;2.77;;;;;;;;;;5054160;28;20239;-81
2022/09/18 01:10:49;;;;;;;5.23;2.47;;;;;;;;;;5054074;28;20176;-81
2022/09/18 01:13:15;;;;;;;4.80;2.77;;;;;;;;;;5053885;28;20176;-81
2022/09/18 01:15:57;;;;;;;6.43;2.73;;;;;;;;;;5054082;28;20188;-81
2022/09/18 01:18:28;;;;;;;4.13;2.70;;;;;;;;;;5053632;28;20273;-81
2022/09/18 01:21:00;;;;;;;8.30;2.70;;;;;;;;;;5053806;28;20208;-81
2022/09/18 01:23:41;;;;;;;6.67;2.63;;;;;;;;;;5053826;28;20332;-81
2022/09/18 01:26:07;;;;;;;4.77;2.60;;;;;;;;;;5053748;28;20176;-81
2022/09/18 01:28:57;;;;;;;4.20;2.83;;;;;;;;;;5053602;28;20265;-81
2022/09/18 01:31:28;;;;;;;4.97;2.80;;;;;;;;;;5053628;28;20220;-81
2022/09/18 01:34:07;;;;;;;4.30;2.93;;;;;;;;;;5053451;28;20180;-81
2022/09/18 01:36:34;;;;;;;3.67;2.70;;;;;;;;;;5053795;28;20180;-81
2022/09/18 01:39:13;;;;;;;6.47;2.90;;;;;;;;;;5053228;28;20182;-81
2022/09/18 01:41:40;;;;;;;5.33;2.90;;;;;;;;;;5054666;28;20227;-81
2022/09/18 01:44:09;;;;;;;5.13;2.67;;;;;;;;;;5036871;28;20175;-81
2022/09/18 01:46:37;;;;;;;5.53;2.90;;;;;;;;;;5053249;28;20177;-81
2022/09/18 01:49:05;;;;;;;6.73;3.10;;;;;;;;;;5036621;28;20267;-81
2022/09/18 01:51:41;;;;;;;4.87;3.07;;;;;;;;;;5036750;28;20219;-81
2022/09/18 01:54:12;;;;;;;4.43;3.20;;;;;;;;;;5053490;28;20179;-81
2022/09/18 01:56:43;;;;;;;7.97;5.27;;;;;;;;;;5053300;28;20191;-81
2022/09/18 01:59:11;;;;;;;7.27;3.53;;;;;;;;;;5052808;28;20178;-81
2022/09/18 02:01:38;;;;;;;6.17;2.97;;;;;;;;;;5054442;28;20279;-81
2022/09/18 02:04:09;;;;;;;3.63;2.80;;;;;;;;;;5036415;28;20317;-81
2022/09/18 02:06:42;;;;;;;4.20;3.07;;;;;;;;;;5036339;28;20685;-81
2022/09/18 02:09:09;;;;;;;4.17;2.60;;;;;;;;;;5052996;28;20178;-81
2022/09/18 02:11:37;;;;;;;6.63;3.13;;;;;;;;;;5036521;28;20199;-81
2022/09/18 02:14:08;;;;;;;3.90;3.00;;;;;;;;;;5036458;28;20185;-81
2022/09/18 02:16:38;;;;;;;5.63;2.77;;;;;;;;;;5051560;28;20650;-81
2022/09/18 02:19:10;;;;;;;4.90;3.10;;;;;;;;;;5052862;28;20277;-81
2022/09/18 02:21:36;;;;;;;4.60;3.03;;;;;;;;;;5052744;28;20260;-81
2022/09/18 02:24:06;;;;;;;7.13;3.10;;;;;;;;;;5036116;28;20579;-81
2022/09/18 02:26:33;;;;;;;5.00;3.07;;;;;;;;;;5036339;28;20216;-81
2022/09/18 02:29:00;;;;;;;3.97;2.90;;;;;;;;;;5052460;28;20177;-81
2022/09/18 02:31:26;;;;;;;4.97;2.80;;;;;;;;;;5052655;28;20176;-81
2022/09/18 02:33:52;;;;;;;4.87;2.67;;;;;;;;;;5035818;28;20185;-81
2022/09/18 02:36:24;;;;;;;3.60;2.93;;;;;;;;;;5036039;28;20188;-81
2022/09/18 02:38:58;;;;;;;3.93;2.80;;;;;;;;;;5052302;28;20645;-81
2022/09/18 02:41:42;;;;;;;5.53;2.60;;;;;;;;;;5052187;28;20251;-81
2022/09/18 02:44:12;;;;;;;5.03;2.77;;;;;;;;;;5052626;28;20183;-81
2022/09/18 02:46:44;;;;;;;5.10;2.63;;;;;;;;;;5052556;28;20184;-81
2022/09/18 02:49:18;;;;;;;3.10;2.60;;;;;;;;;;5051846;28;20234;-81
2022/09/18 02:52:02;;;;;;;3.90;2.70;;;;;;;;;;5052170;28;20184;-81
2022/09/18 02:54:30;;;;;;;5.33;2.80;;;;;;;;;;5053703;28;20177;-81
2022/09/18 02:56:59;;;;;;;3.90;2.63;;;;;;;;;;5052132;28;20287;-81
2022/09/18 02:59:48;;;;;;;5.43;2.60;;;;;;;;;;5052080;28;20188;-81
2022/09/18 03:02:14;;;;;;;5.50;2.30;;;;;;;;;;5046319;28;20215;-81
2022/09/18 03:04:40;;;;;;;3.80;2.50;;;;;;;;;;5052196;28;20180;-80
2022/09/18 03:07:06;;;;;;;4.07;2.43;;;;;;;;;;5051653;28;20300;-81
2022/09/18 03:09:33;;;;;;;3.60;2.53;;;;;;;;;;5035317;28;20181;-81
2022/09/18 03:12:00;;;;;;;4.27;2.30;;;;;;;;;;5035383;28;20715;-81
2022/09/18 03:14:27;;;;;;;3.53;2.47;;;;;;;;;;5052022;28;20226;-81
2022/09/18 03:16:52;;;;;;;5.40;2.50;;;;;;;;;;5051440;28;20519;-81
2022/09/18 03:19:18;;;;;;;4.23;2.40;;;;;;;;;;5051546;28;20188;-81
2022/09/18 03:21:45;;;;;;;2.87;2.30;;;;;;;;;;5051557;28;20211;-81
2022/09/18 03:24:11;;;;;;;6.27;2.40;;;;;;;;;;5035382;28;20228;-81
2022/09/18 03:26:37;;;;;;;2.57;2.33;;;;;;;;;;5051303;28;20180;-81
2022/09/18 03:29:06;;;;;;;5.70;2.30;;;;;;;;;;5034988;28;20183;-81
2022/09/18 03:31:32;;;;;;;6.23;2.83;;;;;;;;;;5051501;28;20211;-81
2022/09/18 03:33:58;;;;;;;4.73;2.47;;;;;;;;;;5035036;28;20183;-81
2022/09/18 03:36:24;;;;;;;4.57;2.23;;;;;;;;;;5035081;28;20274;-81
2022/09/18 03:38:50;;;;;;;2.83;2.17;;;;;;;;;;5051363;28;20227;-81
2022/09/18 03:41:16;;;;;;;4.47;2.20;;;;;;;;;;5034703;28;20236;-81
2022/09/18 03:43:42;;;;;;;5.63;2.60;;;;;;;;;;5051286;28;20197;-81
2022/09/18 03:46:08;;;;;;;4.57;2.37;;;;;;;;;;5034642;28;20181;-81
2022/09/18 03:48:34;;;;;;;4.77;2.30;;;;;;;;;;5051293;28;20199;-81
2022/09/18 03:51:00;;;;;;;3.60;2.43;;;;;;;;;;5051159;28;20596;-81
2022/09/18 03:53:26;;;;;;;4.17;2.53;;;;;;;;;;5052658;28;20181;-81
2022/09/18 03:55:52;;;;;;;3.73;2.37;;;;;;;;;;5034646;28;20191;-81
2022/09/18 03:58:18;;;;;;;4.40;2.70;;;;;;;;;;5051249;28;20204;-81
2022/09/18 04:00:44;;;;;;;4.43;2.60;;;;;;;;;;5050779;28;20208;-81
2022/09/18 04:03:10;;;;;;;4.40;2.67;;;;;;;;;;5051066;28;20171;-81
2022/09/18 04:05:36;;;;;;;4.67;2.50;;;;;;;;;;5034459;28;20179;-81
2022/09/18 04:08:04;;;;;;;5.63;2.47;;;;;;;;;;5051043;28;20216;-81
2022/09/18 04:10:30;;;;;;;3.67;2.67;;;;;;;;;;5052141;28;20177;-81
2022/09/18 04:12:56;;;;;;;4.27;2.70;;;;;;;;;;5034722;28;20225;-81
2022/09/18 04:15:22;;;;;;;3.40;2.77;;;;;;;;;;5034735;28;20188;-81
2022/09/18 04:17:48;;;;;;;4.20;2.73;;;;;;;;;;5050795;28;20211;-81
2022/09/18 04:20:14;;;;;;;6.23;2.77;;;;;;;;;;5034049;28;20187;-81
2022/09/18 04:22:40;;;;;;;5.17;2.70;;;;;;;;;;5034786;28;20233;-81
2022/09/18 04:25:06;;;;;;;5.90;2.70;;;;;;;;;;5034283;28;20559;-81
2022/09/18 04:27:33;;;;;;;5.37;3.13;;;;;;;;;;5034290;28;20245;-81
2022/09/18 04:29:59;;;;;;;3.43;2.83;;;;;;;;;;5050446;28;20647;-81
2022/09/18 04:32:25;;;;;;;4.67;2.90;;;;;;;;;;5050793;28;20185;-82
2022/09/18 04:34:51;;;;;;;4.80;2.77;;;;;;;;;;5050918;28;20183;-81
2022/09/18 04:37:17;;;;;;;4.77;2.90;;;;;;;;;;5051725;28;20212;-80
2022/09/18 04:39:45;;;;;;;3.30;2.60;;;;;;;;;;5037643;28;20203;-80
2022/09/18 04:42:11;;;;;;;6.97;2.33;;;;;;;;;;5055597;28;20201;-80
2022/09/18 04:44:37;;;;;;;5.43;2.53;;;;;;;;;;5055822;28;20180;-80
2022/09/18 04:47:05;;;;;;;4.43;2.40;;;;;;;;;;5039157;28;20200;-80
2022/09/18 04:49:31;;;;;;;4.77;2.73;;;;;;;;;;5039068;28;20662;-80
2022/09/18 04:51:56;;;;;;;4.37;2.77;;;;;;;;;;5055600;28;20180;-80
2022/09/18 04:54:22;;;;;;;3.10;2.80;;;;;;;;;;5056819;28;20181;-80
2022/09/18 04:56:48;;;;;;;4.57;2.80;;;;;;;;;;5038657;28;20234;-80
2022/09/18 04:59:14;;;;;;;6.37;2.90;;;;;;;;;;5038670;28;20595;-80
2022/09/18 05:01:40;;;;;;;7.67;2.90;;;;;;;;;;5038438;28;20205;-79
2022/09/18 05:04:07;;;;;;;3.83;2.50;;;;;;;;;;5038805;28;20235;-79
2022/09/18 05:06:33;;;;;;;3.93;2.40;;;;;;;;;;5039130;28;20316;-80
2022/09/18 05:09:00;;;;;;;2.60;2.40;;;;;;;;;;5060792;22;20228;-80
2022/09/18 05:11:26;;;;;;;3.63;2.40;;;;;;;;;;5034189;28;20197;-83
2022/09/18 05:13:55;;;;;;;3.57;2.30;;;;;;;;;;5018488;28;20187;-80
2022/09/18 05:16:21;;;;;;;2.57;2.10;;;;;;;;;;5018824;28;20227;-79
2022/09/18 05:18:47;;;;;;;3.87;2.10;;;;;;;;;;5034001;28;20224;-80
2022/09/18 05:21:13;;;;;;;4.50;2.40;;;;;;;;;;5037780;28;20742;-81
2022/09/18 05:23:39;;;;;;;3.77;2.30;;;;;;;;;;5037637;28;20179;-81
2022/09/18 05:26:05;;;;;;;4.90;2.10;;;;;;;;;;5054062;28;20178;-80
2022/09/18 05:28:31;;;;;;;3.00;1.90;;;;;;;;;;5053997;28;20545;-81
2022/09/18 05:30:59;;;;;;;3.50;2.13;;;;;;;;;;5037379;28;20178;-80
2022/09/18 05:33:25;;;;;;;2.37;1.90;;;;;;;;;;5054184;28;20186;-80
2022/09/18 05:35:53;;;;;;;3.67;2.20;;;;;;;;;;5037555;28;20201;-80
2022/09/18 05:38:19;;;;;;;4.33;2.20;;;;;;;;;;5053730;28;20276;-80
2022/09/18 05:40:47;;;;;;;3.47;2.13;;;;;;;;;;5053509;28;20173;-80
2022/09/18 05:43:13;;;;;;;3.67;2.20;;;;;;;;;;5053986;28;20187;-80
2022/09/18 05:45:39;;;;;;;6.57;2.73;;;;;;;;;;5037064;28;20177;-80
2022/09/18 05:48:06;;;;;;;5.67;3.20;;;;;;;;;;5053661;28;20193;-80
2022/09/18 05:50:32;;;;;;;4.27;2.67;;;;;;;;;;5053664;28;20551;-80
2022/09/18 05:53:03;;;;;;;4.30;2.33;;;;;;;;;;5053514;28;20268;-81
2022/09/18 05:55:29;;;;;;;4.03;2.23;;;;;;;;;;5053891;28;20702;-81
2022/09/18 05:57:56;;;;;;;5.27;2.10;;;;;;;;;;5053220;28;20212;-81
2022/09/18 06:00:23;;;;;;;4.47;2.60;;;;;;;;;;5053613;28;20259;-81
2022/09/18 06:03:02;;;;;;;3.90;2.10;;;;;;;;;;5053332;28;20213;-81
2022/09/18 06:05:29;;;;;;;4.40;2.00;;;;;;;;;;5036681;28;20180;-81
2022/09/18 06:07:59;;;;;;;3.30;1.97;;;;;;;;;;5036364;28;20221;-80
2022/09/18 06:10:25;;;;;;;3.03;1.90;;;;;;;;;;5036629;28;20181;-80
2022/09/18 06:12:59;;;;;;;3.07;2.00;;;;;;;;;;5036812;28;20252;-81
2022/09/18 06:15:25;;;;;;;3.37;2.03;;;;;;;;;;5053044;28;20739;-80
2022/09/18 06:17:51;;;;;;;3.80;2.20;;;;;;;;;;5037161;28;20212;-81
2022/09/18 06:20:17;;;;;;;5.77;3.47;;;;;;;;;;5053204;28;20714;-80
2022/09/18 06:22:43;;;;;;;7.77;3.60;;;;;;;;;;5053971;28;20206;-79
2022/09/18 06:25:09;;;;;;;2.87;2.20;;;;;;;;;;5053626;28;20706;-79
2022/09/18 06:27:35;;;;;;;5.00;2.87;;;;;;;;;;5037125;28;20211;-79
2022/09/18 06:30:01;;;;;;;3.47;2.40;;;;;;;;;;5037477;28;20177;-79
2022/09/18 06:32:27;;;;;;;3.00;1.90;;;;;;;;;;5037680;28;20192;-79
2022/09/18 06:34:53;;;;;;;2.57;2.00;;;;;;;;;;5053622;28;20182;-80
2022/09/18 06:37:19;;;;;;;3.07;2.10;;;;;;;;;;5052437;28;20209;-80
2022/09/18 06:39:46;;;;;;;2.00;1.80;;;;;;;;;;5052769;28;20227;-80
2022/09/18 06:42:12;;;;;;;2.93;1.90;;;;;;;;;;5052728;28;20202;-80
2022/09/18 06:44:38;;;;;;;3.20;2.10;;;;;;;;;;5036329;28;20185;-80
2022/09/18 06:47:04;;;;;;;2.20;1.80;;;;;;;;;;5036296;28;20170;-80
2022/09/18 06:49:30;;;;;;;2.87;2.17;;;;;;;;;;5052221;28;20170;-80
2022/09/18 06:51:56;;;;;;;4.30;2.37;;;;;;;;;;5035900;28;20636;-80
2022/09/18 06:54:22;;;;;;;2.47;2.03;;;;;;;;;;5053115;28;20271;-81
2022/09/18 06:56:48;;;;;;;2.67;2.10;;;;;;;;;;5036551;28;20182;-80
2022/09/18 06:59:14;;;;;;;2.67;2.13;;;;;;;;;;5036264;28;20268;-79
2022/09/18 07:01:40;;;;;;;2.33;2.00;;;;;;;;;;5035328;28;20312;-79
2022/09/18 07:04:06;;;;;;;2.90;2.20;;;;;;;;;;5048759;28;20643;-79
2022/09/18 07:06:32;;;;;;;3.93;1.90;;;;;;;;;;5073160;28;20212;-79
2022/09/18 07:08:58;;;;;;;2.30;2.10;;;;;;;;;;5035991;28;20279;-79
2022/09/18 07:11:24;;;;;;;3.20;2.70;;;;;;;;;;5047094;28;20186;-79
2022/09/18 07:13:52;;;;;;;1.93;1.70;;;;;;;;;;5020613;28;20193;-79
2022/09/18 07:16:18;;;;;;;2.33;1.80;;;;;;;;;;5037783;28;20177;-79
2022/09/18 07:18:43;;;;;;;5.43;2.80;;;;;;;;;;5028927;28;20575;-79
2022/09/18 07:21:09;;;;;;;5.53;4.23;;;;;;;;;;5049001;28;20201;-79
2022/09/18 07:23:36;;;;;;;3.10;2.20;;;;;;;;;;5037784;28;20187;-79
2022/09/18 07:26:03;;;;;;;3.63;1.57;;;;;;;;;;5037706;28;20174;-79
2022/09/18 07:28:29;;;;;;;3.03;1.80;;;;;;;;;;5054097;28;20217;-79
2022/09/18 07:30:55;;;;;;;2.30;1.70;;;;;;;;;;5036669;28;20223;-79
2022/09/18 07:33:21;;;;;;;1.83;1.70;;;;;;;;;;5053731;28;20174;-79
2022/09/18 07:35:47;;;;;;;2.93;1.70;;;;;;;;;;5053568;28;20209;-80
2022/09/18 07:38:13;;;;;;;2.27;1.53;;;;;;;;;;5050593;28;20251;-79
2022/09/18 07:40:41;;;;;;;2.37;1.93;;;;;;;;;;5035329;28;20178;-79
2022/09/18 07:43:08;;;;;;;2.40;1.80;;;;;;;;;;5037277;28;20250;-79
2022/09/18 07:45:35;;;;;;;3.20;2.00;;;;;;;;;;5033814;28;20178;-79
2022/09/18 07:48:01;;;;;;;3.47;2.20;;;;;;;;;;5037528;28;20233;-79
2022/09/18 07:50:27;;;;;;;3.73;2.67;;;;;;;;;;5033088;28;20182;-79
2022/09/18 07:52:57;;;;;;;3.03;2.30;;;;;;;;;;5036247;28;20214;-80
2022/09/18 07:55:24;;;;;;;2.40;2.00;;;;;;;;;;5052812;28;20178;-80
2022/09/18 07:57:54;;;;;;;2.90;2.20;;;;;;;;;;5055893;28;20209;-80
2022/09/18 08:00:20;;;;;;;2.30;2.10;;;;;;;;;;5060915;28;20185;-79
2022/09/18 08:02:46;;;;;;;3.00;2.23;;;;;;;;;;5035714;28;20228;-79
2022/09/18 08:05:12;;;;;;;3.23;2.10;;;;;;;;;;5036742;28;20176;-80
2022/09/18 08:07:38;;;;;;;4.23;2.30;;;;;;;;;;5052494;28;20240;-80
2022/09/18 08:10:05;;;;;;;3.33;2.40;;;;;;;;;;5036700;28;20225;-79
2022/09/18 08:12:31;;;;;;;2.50;2.30;;;;;;;;;;5052504;28;20197;-79
2022/09/18 08:14:57;;;;;;;2.90;2.10;;;;;;;;;;5056257;28;20170;-80
2022/09/18 08:17:24;;;;;;;3.60;2.60;;;;;;;;;;5039752;28;20577;-79
2022/09/18 08:19:50;;;;;;;4.27;2.30;;;;;;;;;;5056160;28;20593;-80
2022/09/18 08:22:16;;;;;;;3.10;2.20;;;;;;;;;;5039015;28;20232;-80
2022/09/18 08:24:42;;;;;;;4.03;2.70;;;;;;;;;;5039382;28;20184;-81
2022/09/18 08:27:08;;;;;;;2.60;2.10;;;;;;;;;;5054958;28;20202;-77
2022/09/18 08:29:34;;;;;;;3.57;2.30;;;;;;;;;;5055275;28;20227;-80
2022/09/18 08:32:00;;;;;;;3.03;2.73;;;;;;;;;;5056296;28;20224;-80
2022/09/18 08:34:26;;;;;;;2.40;2.20;;;;;;;;;;5039688;28;20219;-80
2022/09/18 08:36:54;;;;;;;2.87;1.80;;;;;;;;;;5039462;28;20185;-80
2022/09/18 08:39:20;;;;;;;2.00;1.80;;;;;;;;;;5055339;28;20227;-81
2022/09/18 08:41:51;;;;;;;2.00;1.80;;;;;;;;;;5030810;28;20210;-81
2022/09/18 08:44:24;;;;;;;2.83;1.80;;;;;;;;;;5035057;28;20202;-81
2022/09/18 08:47:00;;;;;;;2.07;1.63;;;;;;;;;;5018616;28;20188;-81
2022/09/18 08:49:26;;;;;;;2.47;1.90;;;;;;;;;;5035327;28;20269;-81
2022/09/18 08:51:53;;;;;;;3.60;2.70;;;;;;;;;;5034693;28;20277;-81
2022/09/18 08:54:22;;;;;;;3.67;3.00;;;;;;;;;;5018691;28;20182;-81
2022/09/18 08:56:49;;;;;;;2.30;2.10;;;;;;;;;;5032514;28;20182;-81
2022/09/18 08:59:31;;;;;;;3.10;2.60;;;;;;;;;;5016361;28;20213;-81
2022/09/18 09:02:07;;;;;;;2.43;1.90;;;;;;;;;;5033973;28;20738;-81
2022/09/18 09:04:34;;;;;;;2.63;1.73;;;;;;;;;;5034091;28;20174;-81
2022/09/18 09:07:19;;;;;;;2.07;1.83;;;;;;;;;;5017304;28;20734;-81
2022/09/18 09:09:45;;;;;;;3.50;2.13;;;;;;;;;;5033621;28;20185;-81
2022/09/18 09:12:10;;;;;;;3.90;1.77;;;;;;;;;;5034072;28;20178;-81
2022/09/18 09:15:01;;;;;;;3.70;1.70;;;;;;;;;;5033872;28;20561;-81
2022/09/18 09:17:48;;;;;;;2.47;1.57;;;;;;;;;;5033868;28;20202;-81
2022/09/18 09:20:20;;;;;;;4.60;3.13;;;;;;;;;;5033797;28;20314;-81
2022/09/18 09:22:54;;;;;;;2.47;2.20;;;;;;;;;;5034037;28;20206;-81
2022/09/18 09:25:20;;;;;;;3.77;2.60;;;;;;;;;;5033179;28;20655;-81
2022/09/18 09:27:48;;;;;;;8.93;5.87;;;;;;;;;;5033402;28;20190;-81
2022/09/18 09:30:21;;;;;;;5.40;3.37;;;;;;;;;;5033495;28;20177;-81
2022/09/18 09:32:49;;;;;;;5.20;4.23;;;;;;;;;;5033607;28;20183;-81
2022/09/18 09:35:21;;;;;;;4.50;3.20;;;;;;;;;;5017189;28;20185;-81
2022/09/18 09:37:48;;;;;;;8.80;5.80;;;;;;;;;;5033408;28;20208;-81
2022/09/18 09:40:16;;;;;;;9.47;6.20;;;;;;;;;;5016905;28;20187;-81
2022/09/18 09:42:50;;;;;;;4.47;3.43;;;;;;;;;;5033588;28;20210;-81
2022/09/18 09:45:23;;;;;;;12.10;7.03;;;;;;;;;;5033277;28;20177;-81
2022/09/18 09:48:00;;;;;;;6.50;4.57;;;;;;;;;;5033252;28;20191;-81
2022/09/18 09:50:48;;;;;;;14.53;8.67;;;;;;;;;;5033043;28;20174;-81
2022/09/18 09:53:14;;;;;;;4.13;2.70;;;;;;;;;;5033161;28;20275;-81
2022/09/18 09:55:40;;;;;;;5.80;3.93;;;;;;;;;;5016854;28;20660;-81
2022/09/18 09:58:09;;;;;;;3.60;2.80;;;;;;;;;;5032866;28;20198;-81
2022/09/18 10:00:42;;;;;;;3.63;3.13;;;;;;;;;;5032793;28;20261;-81
2022/09/18 10:03:31;;;;;;;3.23;2.40;;;;;;;;;;5032752;28;20205;-81
2022/09/18 10:06:04;;;;;;;5.63;4.20;;;;;;;;;;5032980;28;20175;-81
2022/09/18 10:08:36;;;;;;;4.80;3.20;;;;;;;;;;5032802;28;20236;-81
2022/09/18 10:11:07;;;;;;;2.07;1.87;;;;;;;;;;5032698;28;20243;-81
2022/09/18 10:13:35;;;;;;;4.33;3.20;;;;;;;;;;5016790;28;20209;-81
2022/09/18 10:16:22;;;;;;;2.70;2.37;;;;;;;;;;5034074;28;20177;-81
2022/09/18 10:18:48;;;;;;;3.33;1.80;;;;;;;;;;5032078;28;20199;-81
2022/09/18 10:21:16;;;;;;;1.70;1.57;;;;;;;;;;5016386;28;20202;-81
2022/09/18 10:23:43;;;;;;;9.40;5.40;;;;;;;;;;5016152;28;20275;-81
2022/09/18 10:26:30;;;;;;;3.53;2.97;;;;;;;;;;5032555;28;20179;-82
2022/09/18 10:28:55;;;;;;;2.23;2.03;;;;;;;;;;5032535;28;20198;-81
2022/09/18 10:31:21;;;;;;;2.30;2.07;;;;;;;;;;5016258;28;20182;-81
2022/09/18 10:33:50;;;;;;;3.27;1.97;;;;;;;;;;5032544;28;20225;-81
2022/09/18 10:36:34;;;;;;;3.00;1.57;;;;;;;;;;5032268;28;20183;-80
2022/09/18 10:39:12;;;;;;;11.73;7.47;;;;;;;;;;5032493;28;20568;-81
2022/09/18 10:41:39;;;;;;;2.63;2.40;;;;;;;;;;5032721;28;20207;-82
2022/09/18 10:44:08;;;;;;;10.37;6.23;;;;;;;;;;5034087;28;20784;-81
2022/09/18 10:46:35;;;;;;;4.30;2.70;;;;;;;;;;5032356;28;20177;-81
2022/09/18 10:49:18;;;;;;;2.77;1.70;;;;;;;;;;5032423;28;20204;-80
2022/09/18 10:51:44;;;;;;;3.13;2.43;;;;;;;;;;5032716;28;20182;-80
2022/09/18 10:54:23;;;;;;;3.33;2.90;;;;;;;;;;5032424;28;20185;-80
2022/09/18 10:56:49;;;;;;;1.50;1.40;;;;;;;;;;5032382;28;20182;-80
2022/09/18 10:59:31;;;;;;;1.63;1.53;;;;;;;;;;5080672;27;20551;-79
2022/09/18 11:01:58;;;;;;;1.67;1.50;;;;;;;;;;5085515;28;20264;-80
2022/09/18 11:04:26;;;;;;;1.97;1.70;;;;;;;;;;5102382;28;20197;-80
2022/09/18 11:06:52;;;;;;;2.63;1.50;;;;;;;;;;5068471;28;20165;-80
2022/09/18 11:09:23;;;;;;;2.40;1.37;;;;;;;;;;5068401;28;20271;-80
2022/09/18 11:11:50;;;;;;;2.37;1.60;;;;;;;;;;5048274;22;20222;-79
2022/09/18 11:14:22;;;;;;;1.13;1.00;;;;;;;;;;4993087;28;20266;-79
2022/09/18 11:16:49;;;;;;;1.87;1.60;;;;;;;;;;5008830;28;20228;-79
2022/09/18 11:19:25;;;;;;;0.90;0.90;;;;;;;;;;5008432;28;20207;-79
2022/09/18 11:21:55;;;;;;;1.43;1.10;;;;;;;;;;5008840;28;20199;-79
2022/09/18 11:24:26;;;;;;;0.70;0.70;;;;;;;;;;4992934;28;20183;-79
2022/09/18 11:26:56;;;;;;;1.30;0.70;;;;;;;;;;4992770;28;20650;-79
2022/09/18 11:29:29;;;;;;;2.30;1.20;;;;;;;;;;5008848;28;20181;-79
2022/09/18 11:32:02;;;;;;;1.20;1.10;;;;;;;;;;5010173;28;20194;-79
2022/09/18 11:34:30;;;;;;;1.47;1.37;;;;;;;;;;5008971;28;20265;-80
2022/09/18 11:36:58;;;;;;;2.00;1.60;;;;;;;;;;5009994;28;20250;-80
2022/09/18 11:39:26;;;;;;;1.50;1.40;;;;;;;;;;5008940;28;20179;-80
2022/09/18 11:41:53;;;;;;;1.70;1.50;;;;;;;;;;5008827;28;20199;-80
2022/09/18 11:44:22;;;;;;;2.37;2.10;;;;;;;;;;5009161;28;20548;-80
2022/09/18 11:46:57;;;;;;;1.70;1.60;;;;;;;;;;5008833;28;20179;-80
2022/09/18 11:49:26;;;;;;;1.30;1.20;;;;;;;;;;5008453;28;20207;-80
2022/09/18 11:51:57;;;;;;;2.40;2.00;;;;;;;;;;5008591;28;20211;-80
2022/09/18 11:54:26;;;;;;;3.00;2.07;;;;;;;;;;4992618;28;20176;-80
2022/09/18 11:56:54;;;;;;;2.63;1.83;;;;;;;;;;5008685;28;20185;-80
2022/09/18 11:59:29;;;;;;;3.27;1.20;;;;;;;;;;5008464;28;20237;-80
2022/09/18 12:02:10;;;;;;;1.10;1.00;;;;;;;;;;5008667;28;20202;-80
2022/09/18 12:04:43;;;;;;;1.23;1.10;;;;;;;;;;5008383;28;20175;-80
2022/09/18 12:07:28;;;;;;;1.90;1.60;;;;;;;;;;5008238;28;20536;-80
2022/09/18 12:10:13;;;;;;;1.67;1.00;;;;;;;;;;4999548;28;20201;-80
2022/09/18 12:12:42;;;;;;;2.20;1.00;;;;;;;;;;4995103;28;20218;-80
2022/09/18 12:15:18;;;;;;;1.00;0.90;;;;;;;;;;4995150;28;20183;-80
2022/09/18 12:18:04;;;;;;;2.33;1.00;;;;;;;;;;4994624;28;20569;-80
2022/09/18 12:20:37;;;;;;;1.40;1.30;;;;;;;;;;4994518;28;20177;-80
2022/09/18 12:23:03;;;;;;;3.23;1.90;;;;;;;;;;4996166;28;20192;-80
2022/09/18 12:25:38;;;;;;;3.53;1.40;;;;;;;;;;4994625;28;20255;-79
2022/09/18 12:28:09;;;;;;;1.93;1.30;;;;;;;;;;4994780;28;20175;-80
2022/09/18 12:30:50;;;;;;;2.63;1.60;;;;;;;;;;4994692;28;20183;-80
2022/09/18 12:33:39;;;;;;;1.97;1.30;;;;;;;;;;4994654;28;20183;-80
2022/09/18 12:36:25;;;;;;;1.90;1.40;;;;;;;;;;4994708;28;20707;-80
2022/09/18 12:38:57;;;;;;;1.70;1.40;;;;;;;;;;4994294;28;20218;-80
2022/09/18 12:41:36;;;;;;;1.77;1.30;;;;;;;;;;4994161;28;20283;-80
2022/09/18 12:44:17;;;;;;;1.50;1.40;;;;;;;;;;4994558;28;20225;-80
2022/09/18 12:47:02;;;;;;;8.70;5.50;;;;;;;;;;4994600;28;20185;-80
2022/09/18 12:49:46;;;;;;;11.33;7.50;;;;;;;;;;4995704;28;20622;-80
2022/09/18 12:52:31;;;;;;;4.27;2.50;;;;;;;;;;4994208;28;20231;-80
2022/09/18 12:55:00;;;;;;;4.33;2.83;;;;;;;;;;4994273;28;20176;-80
2022/09/18 12:57:29;;;;;;;6.67;4.50;;;;;;;;;;4994491;28;20203;-80
2022/09/18 13:00:07;;;;;;;3.27;2.33;;;;;;;;;;4994077;28;20227;-80
2022/09/18 13:02:41;;;;;;;5.80;4.00;;;;;;;;;;4978789;28;20263;-80
2022/09/18 13:05:07;;;;;;;12.40;6.37;;;;;;;;;;4994399;28;20172;-80
2022/09/18 13:07:45;;;;;;;36.23;18.67;;;;;;;;;;4994077;28;20658;-80
2022/09/18 13:10:17;;;;;;;17.47;11.70;;;;;;;;;;4994093;28;20184;-80
2022/09/18 13:12:53;;;;;;;4.20;2.30;;;;;;;;;;4995195;28;20210;-80
2022/09/18 13:15:39;;;;;;;3.03;1.97;;;;;;;;;;4993912;28;20597;-80
2022/09/18 13:18:15;;;;;;;6.40;3.90;;;;;;;;;;4993701;28;20200;-80
2022/09/18 13:20:43;;;;;;;2.80;2.20;;;;;;;;;;4992864;28;20179;-80
2022/09/18 13:23:16;;;;;;;4.47;2.73;;;;;;;;;;4993576;28;20226;-80
2022/09/18 13:25:42;;;;;;;4.60;2.40;;;;;;;;;;4993677;28;20207;-79
2022/09/18 13:28:12;;;;;;;4.60;2.70;;;;;;;;;;4993889;28;20230;-79
2022/09/18 13:30:38;;;;;;;3.50;2.27;;;;;;;;;;4994044;28;20180;-79
2022/09/18 13:33:04;;;;;;;2.17;1.50;;;;;;;;;;4977531;28;20203;-79
2022/09/18 13:35:31;;;;;;;4.23;2.50;;;;;;;;;;4993983;28;20275;-79
2022/09/18 13:38:05;;;;;;;2.27;1.80;;;;;;;;;;4993647;28;20214;-79
2022/09/18 13:40:36;;;;;;;2.83;1.50;;;;;;;;;;4993537;28;20187;-80
2022/09/18 13:43:21;;;;;;;2.17;1.80;;;;;;;;;;4995054;28;20274;-79
2022/09/18 13:45:47;;;;;;;1.03;0.93;;;;;;;;;;4993552;28;20182;-79
2022/09/18 13:48:24;;;;;;;1.27;1.00;;;;;;;;;;4993650;28;20198;-80
2022/09/18 13:50:55;;;;;;;0.70;0.70;;;;;;;;;;4977299;28;20186;-79
2022/09/18 13:53:47;;;;;;;1.30;1.00;;;;;;;;;;4993758;28;20179;-79
2022/09/18 13:56:14;;;;;;;2.03;1.20;;;;;;;;;;4992111;28;20218;-80
2022/09/18 13:58:51;;;;;;;1.90;1.30;;;;;;;;;;4993323;28;20238;-80
2022/09/18 14:01:46;;;;;;;2.67;2.20;;;;;;;;;;4993540;28;20203;-79
2022/09/18 14:04:49;;;;;;;2.30;2.00;;;;;;;;;;4993354;28;20234;-79
2022/09/18 14:07:18;;;;;;;1.30;1.20;;;;;;;;;;4956421;28;20179;-80
2022/09/18 14:09:52;;;;;;;1.50;0.80;;;;;;;;;;4986261;28;20191;-80
2022/09/18 14:12:18;;;;;;;1.17;0.90;;;;;;;;;;4992959;28;20207;-80
2022/09/18 14:14:55;;;;;;;1.07;0.80;;;;;;;;;;4994194;28;20230;-80
2022/09/18 14:17:21;;;;;;;1.00;1.00;;;;;;;;;;4992698;28;20203;-80
2022/09/18 14:19:58;;;;;;;1.87;0.77;;;;;;;;;;4976963;28;20199;-80
2022/09/18 14:22:28;;;;;;;1.40;0.90;;;;;;;;;;4992983;28;20286;-79
2022/09/18 14:24:55;;;;;;;0.70;0.70;;;;;;;;;;4992858;28;20183;-79
2022/09/18 14:27:27;;;;;;;1.17;0.80;;;;;;;;;;4994515;28;20175;-80
2022/09/18 14:29:54;;;;;;;4.77;3.70;;;;;;;;;;4992781;28;20230;-80
2022/09/18 14:32:21;;;;;;;7.53;6.87;;;;;;;;;;4992516;28;20234;-79
2022/09/18 14:34:49;;;;;;;5.90;5.40;;;;;;;;;;4977178;28;20188;-80
2022/09/18 14:37:15;;;;;;;2.60;2.10;;;;;;;;;;4992363;28;20247;-80
2022/09/18 14:39:41;;;;;;;1.77;1.20;;;;;;;;;;4993045;28;20194;-80
2022/09/18 14:42:19;;;;;;;2.50;1.80;;;;;;;;;;4976424;28;20196;-79
2022/09/18 14:44:51;;;;;;;1.90;1.80;;;;;;;;;;4992622;28;20218;-79
2022/09/18 14:47:21;;;;;;;6.93;3.97;;;;;;;;;;4992304;28;20269;-79
2022/09/18 14:49:48;;;;;;;1.20;1.03;;;;;;;;;;4992354;28;20180;-79
2022/09/18 14:52:27;;;;;;;6.53;3.40;;;;;;;;;;4992458;28;20210;-80
2022/09/18 14:54:55;;;;;;;3.00;2.17;;;;;;;;;;4976244;28;20191;-80
2022/09/18 14:57:26;;;;;;;3.40;1.70;;;;;;;;;;4992613;28;20187;-79
2022/09/18 14:59:53;;;;;;;3.90;2.20;;;;;;;;;;4992346;28;20183;-80